^^
Saratoga-Weather Station Historical Data
Daily Summary for July 8, 2020 Units:  Metric    English   Both
Daily Weekly Monthly Yearly Custom
  High: Low: Average:
Temperature: 17.2 °C 10.8 °C 13.5 °C
Dew Point: 13.5 °C 9.7 °C 11.7 °C
Humidity: 95% 76% 90%
Wind Speed: 16.3km/h 0km/h 3.4km/h
Wind Gust: 27.4km/h - -
Wind- - SW
Pressure: 1020.0 hPa 1016.9 hPa -
Precipitation: 1.3 mm    
Historical Graphs
 
 
Tabular Data for July 8, 2020
Time Temperature Dew Point Pressure Wind Wind Speed Wind Gust Humidity Rainfall Rate (Hourly) solar
00:02 11.2 °C 9.8 °C 1019.6 hPa WSW 1.4 km/h 3.2 km/h 91% 0.0 mm 0 W/m2
00:07 11.2 °C 9.8 °C 1019.6 hPa West 1.4 km/h 3.2 km/h 91% 0.0 mm 0 W/m2
00:12 11.1 °C 9.7 °C 1019.6 hPa Calm   3.2 km/h 91% 0.0 mm 0 W/m2
00:17 11.1 °C 9.8 °C 1020.0 hPa West 4.7 km/h 8 km/h 92% 0.0 mm 0 W/m2
00:22 11.1 °C 9.8 °C 1020.0 hPa Calm   3.2 km/h 92% 0.0 mm 0 W/m2
00:27 11.1 °C 9.8 °C 1020.0 hPa NNW 3.2 km/h 8 km/h 92% 0.0 mm 0 W/m2
00:32 11.1 °C 9.8 °C 1020.0 hPa Calm   3.2 km/h 92% 0.0 mm 0 W/m2
00:37 11 °C 9.8 °C 1020.0 hPa Calm   3.2 km/h 92% 0.0 mm 0 W/m2
00:42 11 °C 9.8 °C 1020.0 hPa Calm   1.6 km/h 92% 0.0 mm 0 W/m2
00:47 10.9 °C 9.7 °C 1020.0 hPa WSW 3.2 km/h 8 km/h 92% 0.0 mm 0 W/m2
00:52 10.9 °C 9.7 °C 1020.0 hPa SSE 1.4 km/h 3.2 km/h 92% 0.0 mm 0 W/m2
00:57 10.9 °C 9.7 °C 1019.6 hPa NW 3.2 km/h 8 km/h 92% 0.0 mm 0 W/m2
01:02 10.9 °C 9.7 °C 1019.6 hPa Calm   1.6 km/h 92% 0.0 mm 0 W/m2
01:07 10.8 °C 9.7 °C 1019.6 hPa WNW 4.7 km/h 4.8 km/h 93% 0.0 mm 0 W/m2
01:12 10.9 °C 9.8 °C 1019.6 hPa NNW 1.4 km/h 3.2 km/h 93% 0.0 mm 0 W/m2
01:17 10.9 °C 9.8 °C 1019.6 hPa NNW 1.4 km/h 3.2 km/h 93% 0.0 mm 0 W/m2
01:22 10.9 °C 9.8 °C 1019.6 hPa WSW 3.2 km/h 9.7 km/h 93% 0.0 mm 0 W/m2
01:27 11 °C 9.9 °C 1019.6 hPa NW 4.7 km/h 4.8 km/h 93% 0.0 mm 0 W/m2
01:32 11 °C 9.9 °C 1019.6 hPa NW 1.4 km/h 3.2 km/h 93% 0.0 mm 0 W/m2
01:37 11 °C 9.9 °C 1019.6 hPa Calm     93% 0.0 mm 0 W/m2
01:42 11 °C 9.9 °C 1019.6 hPa NE 1.4 km/h 1.6 km/h 93% 0.0 mm 0 W/m2
01:47 10.9 °C 9.8 °C 1019.6 hPa WSW 1.4 km/h 9.7 km/h 93% 0.0 mm 0 W/m2
01:52 10.9 °C 9.8 °C 1019.6 hPa NNW 4.7 km/h 4.8 km/h 93% 0.0 mm 0 W/m2
01:57 10.9 °C 9.8 °C 1019.6 hPa West 3.2 km/h 4.8 km/h 93% 0.0 mm 0 W/m2
02:02 10.9 °C 9.8 °C 1019.6 hPa NW 1.4 km/h 1.6 km/h 93% 0.0 mm 0 W/m2
02:07 11 °C 9.9 °C 1019.6 hPa SW 3.2 km/h 8 km/h 93% 0.0 mm 0 W/m2
02:12 10.9 °C 9.8 °C 1019.6 hPa Calm   1.6 km/h 93% 0.0 mm 0 W/m2
02:17 10.9 °C 9.8 °C 1019.6 hPa Calm   4.8 km/h 93% 0.0 mm 0 W/m2
02:22 10.9 °C 9.8 °C 1019.6 hPa Calm   6.4 km/h 93% 0.0 mm 0 W/m2
02:27 11 °C 9.9 °C 1019.3 hPa West 3.2 km/h 3.2 km/h 93% 0.0 mm 0 W/m2
02:32 11 °C 9.9 °C 1019.3 hPa Calm   4.8 km/h 93% 0.0 mm 0 W/m2
02:37 11 °C 9.9 °C 1019.6 hPa NNW 1.4 km/h 4.8 km/h 93% 0.0 mm 0 W/m2
02:42 11 °C 9.9 °C 1019.6 hPa NW 4.7 km/h 4.8 km/h 93% 0.0 mm 0 W/m2
02:47 11 °C 9.9 °C 1019.6 hPa NW 1.4 km/h 4.8 km/h 93% 0.0 mm 0 W/m2
02:52 11.1 °C 10 °C 1019.6 hPa ENE 1.4 km/h 6.4 km/h 93% 0.0 mm 0 W/m2
02:57 11.1 °C 10 °C 1019.6 hPa Calm   4.8 km/h 93% 0.0 mm 0 W/m2
03:02 11.1 °C 10 °C 1019.6 hPa NW 4.7 km/h 9.7 km/h 93% 0.0 mm 0 W/m2
03:07 11.1 °C 10 °C 1019.6 hPa Calm   3.2 km/h 93% 0.0 mm 0 W/m2
03:12 11.1 °C 10 °C 1019.6 hPa SSE 6.4 km/h 6.4 km/h 93% 0.0 mm 0 W/m2
03:17 11.2 °C 10.1 °C 1019.6 hPa NW 4.7 km/h 4.8 km/h 93% 0.0 mm 0 W/m2
03:22 11.2 °C 9.9 °C 1019.3 hPa West 1.4 km/h 6.4 km/h 92% 0.0 mm 0 W/m2
03:27 11.2 °C 9.9 °C 1019.3 hPa Calm   4.8 km/h 92% 0.0 mm 0 W/m2
03:32 11.2 °C 9.9 °C 1019.3 hPa Calm   1.6 km/h 92% 0.0 mm 0 W/m2
03:37 11.2 °C 9.9 °C 1019.3 hPa WNW 1.4 km/h 3.2 km/h 92% 0.0 mm 0 W/m2
03:42 11.2 °C 9.9 °C 1019.3 hPa West 1.4 km/h 3.2 km/h 92% 0.0 mm 0 W/m2
03:47 11.2 °C 9.9 °C 1019.3 hPa NE 1.4 km/h 3.2 km/h 92% 0.0 mm 0 W/m2
03:52 11.2 °C 9.9 °C 1019.3 hPa NNE 1.4 km/h 6.4 km/h 92% 0.0 mm 0 W/m2
03:57 11.3 °C 10 °C 1019.3 hPa West 3.2 km/h 6.4 km/h 92% 0.0 mm 0 W/m2
04:02 11.3 °C 10 °C 1019.3 hPa WNW 3.2 km/h 4.8 km/h 92% 0.0 mm 0 W/m2
04:07 11.3 °C 10 °C 1019.3 hPa SW 3.2 km/h 6.4 km/h 92% 0.0 mm 0 W/m2
04:12 11.3 °C 10 °C 1019.3 hPa ENE 1.4 km/h 4.8 km/h 92% 0.0 mm 0 W/m2
04:17 11.3 °C 10 °C 1019.3 hPa Calm   3.2 km/h 92% 0.0 mm 0 W/m2
04:22 11.3 °C 10 °C 1019.3 hPa Calm   3.2 km/h 92% 0.0 mm 0 W/m2
04:27 11.3 °C 10 °C 1019.3 hPa Calm   3.2 km/h 92% 0.0 mm 0 W/m2
04:32 11.2 °C 9.9 °C 1019.3 hPa NNE 3.2 km/h 6.4 km/h 92% 0.0 mm 0 W/m2
04:37 11.2 °C 9.9 °C 1019.3 hPa Calm   3.2 km/h 92% 0.0 mm 0 W/m2
04:42 11.2 °C 10.1 °C 1019.3 hPa North 1.4 km/h 3.2 km/h 93% 0.0 mm 0 W/m2
04:47 11.2 °C 10.1 °C 1019.0 hPa Calm   3.2 km/h 93% 0.0 mm 0 W/m2
04:52 11.2 °C 10.1 °C 1019.0 hPa NNE 3.2 km/h 3.2 km/h 93% 0.0 mm 0 W/m2
04:57 11.2 °C 10.1 °C 1019.0 hPa East 3.2 km/h 12.9 km/h 93% 0.0 mm 0 W/m2
05:02 11.2 °C 10.1 °C 1019.0 hPa WNW 1.4 km/h 6.4 km/h 93% 0.0 mm 0 W/m2
05:07 11.2 °C 10.1 °C 1019.0 hPa North 1.4 km/h 12.9 km/h 93% 0.0 mm 0 W/m2
05:12 11.3 °C 10.2 °C 1019.0 hPa NW 3.2 km/h 6.4 km/h 93% 0.0 mm 0 W/m2
05:17 11.3 °C 10.2 °C 1019.0 hPa NE 1.4 km/h 4.8 km/h 93% 0.0 mm 0 W/m2
05:22 11.3 °C 10.2 °C 1019.0 hPa North 1.4 km/h 6.4 km/h 93% 0.0 mm 0 W/m2
05:27 11.3 °C 10.2 °C 1019.0 hPa NE 4.7 km/h 4.8 km/h 93% 0.0 mm 0 W/m2
05:32 11.3 °C 10.2 °C 1019.0 hPa ENE 1.4 km/h 3.2 km/h 93% 0.0 mm 0 W/m2
05:37 11.3 °C 10.2 °C 1019.0 hPa ESE 3.2 km/h 3.2 km/h 93% 0.0 mm 0 W/m2
05:42 11.3 °C 10.2 °C 1019.0 hPa ESE 6.4 km/h 9.7 km/h 93% 0.0 mm 0 W/m2
05:47 11.4 °C 10.3 °C 1019.0 hPa NE 1.4 km/h 3.2 km/h 93% 0.0 mm 0 W/m2
05:52 11.4 °C 10.3 °C 1018.6 hPa NE 6.4 km/h 8 km/h 93% 0.0 mm 0 W/m2
05:57 11.4 °C 10.3 °C 1018.6 hPa NNE 1.4 km/h 4.8 km/h 93% 0.0 mm 0 W/m2
06:02 11.4 °C 10.3 °C 1019.0 hPa Calm   3.2 km/h 93% 0.0 mm 0 W/m2
06:07 11.5 °C 10.4 °C 1018.6 hPa ENE 4.7 km/h 6.4 km/h 93% 0.0 mm 0 W/m2
06:12 11.6 °C 10.3 °C 1018.6 hPa WNW 1.4 km/h 4.8 km/h 92% 0.0 mm 0 W/m2
06:17 11.6 °C 10.3 °C 1018.6 hPa Calm   3.2 km/h 92% 0.0 mm 0 W/m2
06:22 11.6 °C 10.3 °C 1018.6 hPa Calm   3.2 km/h 92% 0.0 mm 0 W/m2
06:27 11.6 °C 10.3 °C 1018.6 hPa Calm   6.4 km/h 92% 0.0 mm 0 W/m2
06:32 11.6 °C 10.3 °C 1018.3 hPa SE 1.4 km/h 8 km/h 92% 0.0 mm 0 W/m2
06:37 11.6 °C 10.3 °C 1018.3 hPa North 1.4 km/h 4.8 km/h 92% 0.0 mm 0 W/m2
06:42 11.6 °C 10.3 °C 1018.3 hPa NNE 3.2 km/h 6.4 km/h 92% 0.0 mm 0 W/m2
06:47 11.6 °C 10.3 °C 1018.3 hPa NE 3.2 km/h 6.4 km/h 92% 0.0 mm 0 W/m2
06:52 11.7 °C 10.4 °C 1018.3 hPa Calm   9.7 km/h 92% 0.0 mm 0 W/m2
06:57 11.7 °C 10.4 °C 1018.3 hPa West 3.2 km/h 4.8 km/h 92% 0.0 mm 0 W/m2
07:02 11.7 °C 10.4 °C 1018.3 hPa North 3.2 km/h 9.7 km/h 92% 0.0 mm 0 W/m2
07:07 11.8 °C 10.5 °C 1018.3 hPa Calm   3.2 km/h 92% 0.0 mm 0 W/m2
07:12 11.8 °C 10.5 °C 1018.3 hPa NW 3.2 km/h 4.8 km/h 92% 0.0 mm 0 W/m2
07:17 11.8 °C 10.5 °C 1018.3 hPa NE 3.2 km/h 6.4 km/h 92% 0.0 mm 0 W/m2
07:23 11.8 °C 10.5 °C 1018.3 hPa North 4.7 km/h 4.8 km/h 92% 0.0 mm 0 W/m2
07:28 11.8 °C 10.5 °C 1018.3 hPa North 1.4 km/h 1.6 km/h 92% 0.0 mm 0 W/m2
07:33 11.8 °C 10.5 °C 1018.3 hPa North 1.4 km/h 4.8 km/h 92% 0.0 mm 0 W/m2
07:38 11.8 °C 10.5 °C 1018.3 hPa NNE 3.2 km/h 4.8 km/h 92% 0.0 mm 0 W/m2
07:43 11.8 °C 10.5 °C 1018.3 hPa NW 1.4 km/h 4.8 km/h 92% 0.0 mm 0 W/m2
07:48 11.7 °C 10.6 °C 1018.3 hPa NE 1.4 km/h 1.6 km/h 93% 0.0 mm 0 W/m2
07:53 11.7 °C 10.6 °C 1018.0 hPa NNE 1.4 km/h 4.8 km/h 93% 0.0 mm 0 W/m2
07:58 11.6 °C 10.5 °C 1018.0 hPa NE 4.7 km/h 4.8 km/h 93% 0.0 mm 0 W/m2
08:03 11.6 °C 10.5 °C 1018.0 hPa ESE 1.4 km/h 8 km/h 93% 0.2 mm 5 W/m2
08:08 11.6 °C 10.5 °C 1018.0 hPa NW 13 km/h 12.9 km/h 93% 0.2 mm 5 W/m2
08:13 11.7 °C 10.6 °C 1018.0 hPa NNW 6.4 km/h 19.3 km/h 93% 0.2 mm 7 W/m2
08:18 11.7 °C 10.6 °C 1018.0 hPa Calm   3.2 km/h 93% 0.2 mm 5 W/m2
08:23 11.7 °C 10.6 °C 1018.0 hPa NE 6.4 km/h 6.4 km/h 93% 0.2 mm 9 W/m2
08:28 11.7 °C 10.6 °C 1018.0 hPa SW 1.4 km/h 8 km/h 93% 0.2 mm 16 W/m2
08:33 11.7 °C 10.8 °C 1018.0 hPa NNW 4.7 km/h 6.4 km/h 94% 0.5 mm 18 W/m2
08:38 11.7 °C 10.8 °C 1018.0 hPa West 4.7 km/h 6.4 km/h 94% 0.5 mm 12 W/m2
08:43 11.7 °C 10.8 °C 1018.0 hPa North 1.4 km/h 4.8 km/h 94% 0.5 mm 14 W/m2
08:48 11.7 °C 10.8 °C 1018.0 hPa WNW 4.7 km/h 6.4 km/h 94% 0.5 mm 25 W/m2
08:53 11.7 °C 10.8 °C 1018.0 hPa North 1.4 km/h 4.8 km/h 94% 0.5 mm 18 W/m2
08:58 11.7 °C 10.8 °C 1018.0 hPa NW 3.2 km/h 6.4 km/h 94% 0.5 mm 12 W/m2
09:03 11.7 °C 10.8 °C 1018.0 hPa NNW 4.7 km/h 6.4 km/h 94% 0.5 mm 14 W/m2
09:08 11.7 °C 10.8 °C 1018.0 hPa Calm   6.4 km/h 94% 0.5 mm 21 W/m2
09:13 11.7 °C 10.9 °C 1018.3 hPa WNW 1.4 km/h 4.8 km/h 95% 0.5 mm 26 W/m2
09:18 11.7 °C 10.9 °C 1018.3 hPa North 6.4 km/h 6.4 km/h 95% 0.5 mm 39 W/m2
09:23 11.7 °C 10.9 °C 1018.3 hPa North 1.4 km/h 8 km/h 95% 0.5 mm 39 W/m2
09:28 11.7 °C 10.9 °C 1018.0 hPa North 1.4 km/h 9.7 km/h 95% 0.8 mm 39 W/m2
09:33 11.8 °C 11 °C 1018.3 hPa WNW 4.7 km/h 9.7 km/h 95% 0.5 mm 37 W/m2
09:38 11.8 °C 11 °C 1018.3 hPa NNE 1.4 km/h 9.7 km/h 95% 0.5 mm 44 W/m2
09:43 11.8 °C 11 °C 1018.3 hPa WNW 3.2 km/h 6.4 km/h 95% 0.5 mm 53 W/m2
09:48 11.9 °C 11.1 °C 1018.3 hPa Calm   1.6 km/h 95% 0.5 mm 62 W/m2
09:53 11.9 °C 11.1 °C 1018.3 hPa North 1.4 km/h 3.2 km/h 95% 0.5 mm 54 W/m2
09:58 11.9 °C 11.1 °C 1018.3 hPa NW 3.2 km/h 9.7 km/h 95% 0.5 mm 44 W/m2
10:03 12 °C 11.2 °C 1018.3 hPa WNW 3.2 km/h 6.4 km/h 95% 0.2 mm 47 W/m2
10:08 12.1 °C 11.3 °C 1018.6 hPa WNW 3.2 km/h 8 km/h 95% 0.2 mm 54 W/m2
10:13 12.1 °C 11.3 °C 1018.3 hPa NE 3.2 km/h 6.4 km/h 95% 0.2 mm 88 W/m2
10:18 12.2 °C 11.4 °C 1018.6 hPa ENE 7.9 km/h 12.9 km/h 95% 0.2 mm 77 W/m2
10:23 12.2 °C 11.4 °C 1018.3 hPa NE 3.2 km/h 6.4 km/h 95% 0.2 mm 97 W/m2
10:28 12.3 °C 11.5 °C 1018.3 hPa ESE 1.4 km/h 3.2 km/h 95% 0.0 mm 56 W/m2
10:33 12.3 °C 11.5 °C 1018.6 hPa NW 1.4 km/h 11.3 km/h 95% 0.0 mm 62 W/m2
10:38 12.3 °C 11.5 °C 1018.6 hPa West 6.4 km/h 6.4 km/h 95% 0.0 mm 84 W/m2
10:43 12.4 °C 11.6 °C 1018.6 hPa NW 3.2 km/h 9.7 km/h 95% 0.0 mm 72 W/m2
10:48 12.4 °C 11.6 °C 1018.6 hPa NW 1.4 km/h 6.4 km/h 95% 0.0 mm 84 W/m2
10:53 12.4 °C 11.6 °C 1018.6 hPa ENE 1.4 km/h 11.3 km/h 95% 0.0 mm 83 W/m2
10:58 12.4 °C 11.6 °C 1018.6 hPa NE 1.4 km/h 6.4 km/h 95% 0.2 mm 54 W/m2
11:03 12.5 °C 11.7 °C 1018.3 hPa NNE 3.2 km/h 4.8 km/h 95% 0.2 mm 60 W/m2
11:08 12.6 °C 11.8 °C 1018.6 hPa Calm   6.4 km/h 95% 0.2 mm 67 W/m2
11:13 12.6 °C 11.8 °C 1018.3 hPa NW 1.4 km/h 9.7 km/h 95% 0.2 mm 60 W/m2
11:18 12.6 °C 11.8 °C 1018.6 hPa West 1.4 km/h 11.3 km/h 95% 0.2 mm 53 W/m2
11:23 12.6 °C 11.8 °C 1018.6 hPa Calm   3.2 km/h 95% 0.2 mm 72 W/m2
11:28 12.7 °C 11.9 °C 1018.6 hPa SSE 4.7 km/h 9.7 km/h 95% 0.2 mm 77 W/m2
11:33 12.8 °C 12 °C 1018.3 hPa NE 3.2 km/h 6.4 km/h 95% 0.2 mm 56 W/m2
11:38 12.8 °C 12 °C 1018.3 hPa North 1.4 km/h 9.7 km/h 95% 0.2 mm 76 W/m2
11:43 12.9 °C 12.1 °C 1018.6 hPa North 3.2 km/h 3.2 km/h 95% 0.2 mm 67 W/m2
11:48 12.9 °C 12.1 °C 1018.6 hPa South 1.4 km/h 4.8 km/h 95% 0.2 mm 70 W/m2
11:53 13 °C 12.2 °C 1018.3 hPa ENE 3.2 km/h 9.7 km/h 95% 0.2 mm 65 W/m2
11:58 13.1 °C 12.3 °C 1018.3 hPa Calm   8 km/h 95% 0.0 mm 60 W/m2
12:04 13.1 °C 12.3 °C 1018.3 hPa West 6.4 km/h 6.4 km/h 95% 0.0 mm 83 W/m2
12:09 13.2 °C 12.4 °C 1018.3 hPa Calm   8 km/h 95% 0.0 mm 77 W/m2
12:14 13.2 °C 12.4 °C 1018.6 hPa SE 4.7 km/h 14.5 km/h 95% 0.0 mm 98 W/m2
12:19 13.3 °C 12.5 °C 1018.3 hPa West 3.2 km/h 11.3 km/h 95% 0.0 mm 190 W/m2
12:24 13.4 °C 12.5 °C 1018.3 hPa East 3.2 km/h 12.9 km/h 94% 0.0 mm 107 W/m2
12:29 13.5 °C 12.7 °C 1018.3 hPa East 1.4 km/h 8 km/h 95% 0.0 mm 163 W/m2
12:34 13.6 °C 12.7 °C 1018.3 hPa NNW 1.4 km/h 14.5 km/h 94% 0.0 mm 178 W/m2
12:39 13.7 °C 12.8 °C 1018.0 hPa NNE 1.4 km/h 11.3 km/h 94% 0.0 mm 128 W/m2
12:44 13.8 °C 12.9 °C 1018.3 hPa WNW 7.9 km/h 11.3 km/h 94% 0.0 mm 204 W/m2
12:49 13.9 °C 12.8 °C 1018.0 hPa NW 6.4 km/h 11.3 km/h 93% 0.0 mm 232 W/m2
12:54 14.1 °C 13 °C 1018.0 hPa WNW 1.4 km/h 14.5 km/h 93% 0.0 mm 227 W/m2
12:59 14.2 °C 13.1 °C 1018.0 hPa WNW 4.7 km/h 8 km/h 93% 0.0 mm 343 W/m2
13:04 14.4 °C 13.1 °C 1018.0 hPa WSW 6.4 km/h 9.7 km/h 92% 0.0 mm 246 W/m2
13:09 14.7 °C 13.4 °C 1018.0 hPa NW 11.1 km/h 14.5 km/h 92% 0.0 mm 248 W/m2
13:14 14.8 °C 13.3 °C 1018.0 hPa NW 4.7 km/h 6.4 km/h 91% 0.0 mm 186 W/m2
13:19 14.8 °C 13.3 °C 1018.0 hPa WSW 11.1 km/h 19.3 km/h 91% 0.0 mm 149 W/m2
13:24 14.8 °C 13.2 °C 1018.0 hPa WNW 13 km/h 14.5 km/h 90% 0.0 mm 174 W/m2
13:29 14.8 °C 13.2 °C 1018.0 hPa NNW 3.2 km/h 19.3 km/h 90% 0.0 mm 199 W/m2
13:34 14.8 °C 13 °C 1018.0 hPa West 3.2 km/h 17.7 km/h 89% 0.0 mm 267 W/m2
13:39 15 °C 13.4 °C 1018.0 hPa South 16.3 km/h 16.1 km/h 90% 0.0 mm 302 W/m2
13:44 15.1 °C 13.3 °C 1018.0 hPa NNE 3.2 km/h 6.4 km/h 89% 0.0 mm 246 W/m2
13:49 15.3 °C 13.5 °C 1018.0 hPa North 1.4 km/h 6.4 km/h 89% 0.0 mm 265 W/m2
13:54 15.4 °C 13.4 °C 1018.0 hPa NE 3.2 km/h 6.4 km/h 88% 0.0 mm 290 W/m2
13:59 15.6 °C 13.4 °C 1017.6 hPa West 6.4 km/h 9.7 km/h 87% 0.0 mm 285 W/m2
14:04 15.7 °C 13.4 °C 1017.6 hPa NNW 4.7 km/h 19.3 km/h 86% 0.0 mm 246 W/m2
14:09 15.7 °C 13.2 °C 1017.6 hPa NE 1.4 km/h 8 km/h 85% 0.0 mm 162 W/m2
14:14 15.7 °C 13.2 °C 1017.6 hPa WSW 4.7 km/h 14.5 km/h 85% 0.0 mm 134 W/m2
14:19 15.9 °C 13.2 °C 1017.6 hPa SSW 3.2 km/h 12.9 km/h 84% 0.0 mm 163 W/m2
14:24 15.9 °C 13 °C 1017.6 hPa West 3.2 km/h 14.5 km/h 83% 0.0 mm 169 W/m2
14:29 15.8 °C 12.9 °C 1017.6 hPa WNW 6.4 km/h 12.9 km/h 83% 0.0 mm 86 W/m2
14:34 15.8 °C 12.9 °C 1017.6 hPa WNW 9.7 km/h 14.5 km/h 83% 0.0 mm 76 W/m2
14:39 15.7 °C 12.8 °C 1017.6 hPa NE 1.4 km/h 6.4 km/h 83% 0.0 mm 104 W/m2
14:44 15.6 °C 12.7 °C 1017.6 hPa NE 6.4 km/h 11.3 km/h 83% 0.0 mm 171 W/m2
14:49 15.7 °C 13 °C 1017.6 hPa WNW 3.2 km/h 8 km/h 84% 0.0 mm 221 W/m2
14:54 15.7 °C 13 °C 1017.6 hPa WNW 4.7 km/h 4.8 km/h 84% 0.0 mm 190 W/m2
14:59 15.8 °C 13.1 °C 1017.6 hPa NNW 3.2 km/h 6.4 km/h 84% 0.0 mm 146 W/m2
15:04 15.8 °C 12.9 °C 1017.6 hPa SE 1.4 km/h 14.5 km/h 83% 0.0 mm 192 W/m2
15:09 15.9 °C 13 °C 1017.6 hPa WNW 4.7 km/h 9.7 km/h 83% 0.0 mm 206 W/m2
15:14 16 °C 13.1 °C 1017.6 hPa WNW 1.4 km/h 4.8 km/h 83% 0.0 mm 167 W/m2
15:19 16.1 °C 13 °C 1017.3 hPa North 1.4 km/h 6.4 km/h 82% 0.0 mm 206 W/m2
15:24 16.2 °C 12.9 °C 1017.3 hPa Calm   6.4 km/h 81% 0.0 mm 202 W/m2
15:29 16.3 °C 13 °C 1017.3 hPa North 3.2 km/h 4.8 km/h 81% 0.0 mm 353 W/m2
15:34 16.5 °C 13 °C 1017.3 hPa West 4.7 km/h 11.3 km/h 80% 0.0 mm 397 W/m2
15:39 16.7 °C 13.2 °C 1017.3 hPa West 6.4 km/h 6.4 km/h 80% 0.0 mm 193 W/m2
15:44 16.7 °C 13 °C 1017.3 hPa ENE 4.7 km/h 14.5 km/h 79% 0.0 mm 274 W/m2
15:49 16.8 °C 13.3 °C 1017.3 hPa West 1.4 km/h 4.8 km/h 80% 0.0 mm 302 W/m2
15:54 16.9 °C 13.2 °C 1017.3 hPa NNW 4.7 km/h 14.5 km/h 79% 0.0 mm 160 W/m2
15:59 16.9 °C 13 °C 1016.9 hPa WNW 16.3 km/h 17.7 km/h 78% 0.0 mm 327 W/m2
16:04 16.9 °C 12.8 °C 1016.9 hPa NW 3.2 km/h 12.9 km/h 77% 0.0 mm 209 W/m2
16:09 17 °C 12.9 °C 1017.3 hPa WNW 4.7 km/h 11.3 km/h 77% 0.0 mm 246 W/m2
16:14 17.1 °C 12.8 °C 1017.3 hPa NW 4.7 km/h 12.9 km/h 76% 0.0 mm 304 W/m2
16:19 17.2 °C 12.9 °C 1016.9 hPa NNE 3.2 km/h 4.8 km/h 76% 0.0 mm 220 W/m2
16:24 17.2 °C 12.9 °C 1016.9 hPa West 14.3 km/h 20.9 km/h 76% 0.0 mm 167 W/m2
16:29 17.1 °C 12.8 °C 1016.9 hPa WNW 7.9 km/h 14.5 km/h 76% 0.0 mm 149 W/m2
16:34 16.9 °C 12.8 °C 1016.9 hPa West 3.2 km/h 20.9 km/h 77% 0.0 mm 135 W/m2
16:39 16.9 °C 12.8 °C 1016.9 hPa East 3.2 km/h 4.8 km/h 77% 0.0 mm 104 W/m2
16:44 16.8 °C 12.7 °C 1016.9 hPa WSW 3.2 km/h 11.3 km/h 77% 0.0 mm 83 W/m2
16:49 16.8 °C 12.7 °C 1017.3 hPa WNW 7.9 km/h 14.5 km/h 77% 0.0 mm 69 W/m2
16:55 16.8 °C 12.9 °C 1017.3 hPa NW 4.7 km/h 8 km/h 78% 0.0 mm 74 W/m2
17:00 16.7 °C 12.8 °C 1017.3 hPa South 3.2 km/h 14.5 km/h 78% 0.0 mm 90 W/m2
17:05 16.7 °C 12.6 °C 1017.3 hPa SW 3.2 km/h 12.9 km/h 77% 0.0 mm 105 W/m2
17:10 16.7 °C 12.8 °C 1017.3 hPa WNW 4.7 km/h 16.1 km/h 78% 0.0 mm 100 W/m2
17:15 16.7 °C 12.8 °C 1017.3 hPa NNE 1.4 km/h 11.3 km/h 78% 0.0 mm 109 W/m2
17:20 16.7 °C 12.8 °C 1017.3 hPa SSW 1.4 km/h 16.1 km/h 78% 0.0 mm 102 W/m2
17:25 16.7 °C 12.8 °C 1016.9 hPa Calm   12.9 km/h 78% 0.0 mm 100 W/m2
17:30 16.7 °C 12.8 °C 1016.9 hPa NE 3.2 km/h 8 km/h 78% 0.0 mm 81 W/m2
17:35 16.8 °C 12.9 °C 1017.3 hPa NW 3.2 km/h 4.8 km/h 78% 0.0 mm 67 W/m2
17:40 16.7 °C 12.8 °C 1017.3 hPa WNW 3.2 km/h 17.7 km/h 78% 0.0 mm 51 W/m2
17:45 16.7 °C 13 °C 1017.3 hPa ENE 4.7 km/h 9.7 km/h 79% 0.0 mm 47 W/m2
17:50 16.7 °C 13 °C 1017.3 hPa West 6.4 km/h 17.7 km/h 79% 0.0 mm 35 W/m2
17:55 16.6 °C 13.1 °C 1017.3 hPa WNW 3.2 km/h 8 km/h 80% 0.0 mm 40 W/m2
18:00 16.6 °C 13.1 °C 1017.6 hPa WNW 6.4 km/h 12.9 km/h 80% 0.0 mm 32 W/m2
18:05 16.4 °C 13.1 °C 1017.6 hPa SW 7.9 km/h 27.4 km/h 81% 0.0 mm 39 W/m2
18:10 16.3 °C 13.2 °C 1017.6 hPa NW 9.7 km/h 12.9 km/h 82% 0.0 mm 23 W/m2
18:15 16.1 °C 13.2 °C 1017.6 hPa NW 6.4 km/h 27.4 km/h 83% 0.0 mm 35 W/m2
18:20 15.8 °C 13.1 °C 1017.6 hPa NW 6.4 km/h 12.9 km/h 84% 0.0 mm 19 W/m2
18:25 15.8 °C 13.1 °C 1018.0 hPa NW 6.4 km/h 16.1 km/h 84% 0.0 mm 18 W/m2
18:30 15.7 °C 13.2 °C 1018.0 hPa NW 3.2 km/h 3.2 km/h 85% 0.0 mm 16 W/m2
18:35 15.5 °C 13.3 °C 1017.6 hPa SSE 13 km/h 14.5 km/h 87% 0.0 mm 19 W/m2
18:40 15.3 °C 13.1 °C 1017.6 hPa NNE 6.4 km/h 11.3 km/h 87% 0.0 mm 14 W/m2
18:45 15.2 °C 13.2 °C 1017.6 hPa NW 3.2 km/h 14.5 km/h 88% 0.0 mm 9 W/m2
18:50 15.1 °C 13.1 °C 1018.0 hPa WSW 4.7 km/h 12.9 km/h 88% 0.0 mm 5 W/m2
18:55 15.1 °C 13.1 °C 1018.0 hPa NNW 6.4 km/h 14.5 km/h 88% 0.0 mm 0 W/m2
19:00 15.1 °C 13.3 °C 1018.0 hPa WSW 4.7 km/h 12.9 km/h 89% 0.0 mm 0 W/m2
19:05 15 °C 13.2 °C 1018.0 hPa ESE 1.4 km/h 11.3 km/h 89% 0.0 mm 0 W/m2
19:10 14.9 °C 13.1 °C 1018.0 hPa NE 3.2 km/h 6.4 km/h 89% 0.0 mm 0 W/m2
19:15 14.9 °C 13.1 °C 1018.0 hPa NNE 3.2 km/h 6.4 km/h 89% 0.0 mm 0 W/m2
19:20 14.9 °C 13.1 °C 1018.0 hPa WNW 6.4 km/h 12.9 km/h 89% 0.0 mm 0 W/m2
19:26 14.9 °C 13.1 °C 1018.0 hPa North 3.2 km/h 4.8 km/h 89% 0.0 mm 0 W/m2
19:31 14.9 °C 13.1 °C 1018.0 hPa NNW 14.3 km/h 17.7 km/h 89% 0.0 mm 0 W/m2
19:36 14.9 °C 13.1 °C 1018.0 hPa NNW 6.4 km/h 6.4 km/h 89% 0.0 mm 0 W/m2
19:41 14.9 °C 13.1 °C 1018.0 hPa North 1.4 km/h 16.1 km/h 89% 0.0 mm 0 W/m2
19:46 14.9 °C 13.1 °C 1018.3 hPa North 13 km/h 12.9 km/h 89% 0.0 mm 0 W/m2
19:51 14.9 °C 13.1 °C 1018.3 hPa NNW 4.7 km/h 11.3 km/h 89% 0.0 mm 0 W/m2
19:56 14.9 °C 13.1 °C 1018.3 hPa WSW 1.4 km/h 16.1 km/h 89% 0.0 mm 0 W/m2
20:01 14.9 °C 13.1 °C 1018.3 hPa NNW 3.2 km/h 9.7 km/h 89% 0.0 mm 0 W/m2
20:06 14.9 °C 13.1 °C 1018.6 hPa NW 1.4 km/h 12.9 km/h 89% 0.0 mm 0 W/m2
20:11 14.9 °C 13.1 °C 1018.3 hPa NW 4.7 km/h 8 km/h 89% 0.0 mm 0 W/m2
20:16 14.9 °C 13.1 °C 1018.3 hPa NE 1.4 km/h 12.9 km/h 89% 0.0 mm 0 W/m2
20:21 14.9 °C 13.1 °C 1018.3 hPa NNE 3.2 km/h 8 km/h 89% 0.0 mm 0 W/m2
20:26 14.9 °C 13.1 °C 1018.3 hPa Calm   6.4 km/h 89% 0.0 mm 0 W/m2
20:31 14.9 °C 13.1 °C 1018.3 hPa WSW 3.2 km/h 8 km/h 89% 0.0 mm 0 W/m2
20:36 14.8 °C 13 °C 1018.3 hPa WNW 4.7 km/h 4.8 km/h 89% 0.0 mm 0 W/m2
20:41 14.8 °C 13.2 °C 1018.3 hPa NNE 4.7 km/h 6.4 km/h 90% 0.0 mm 0 W/m2
20:46 14.8 °C 13.2 °C 1018.3 hPa NNW 1.4 km/h 4.8 km/h 90% 0.0 mm 0 W/m2
20:51 14.7 °C 13.1 °C 1018.3 hPa SSW 7.9 km/h 14.5 km/h 90% 0.0 mm 0 W/m2
20:56 14.8 °C 13.2 °C 1018.6 hPa NNW 6.4 km/h 6.4 km/h 90% 0.0 mm 0 W/m2
21:01 14.8 °C 13.2 °C 1018.6 hPa WSW 7.9 km/h 12.9 km/h 90% 0.0 mm 0 W/m2
21:06 14.8 °C 13.2 °C 1018.6 hPa West 4.7 km/h 6.4 km/h 90% 0.0 mm 0 W/m2
21:11 14.8 °C 13.2 °C 1018.6 hPa Calm   12.9 km/h 90% 0.0 mm 0 W/m2
21:16 14.9 °C 13.1 °C 1018.6 hPa NNW 4.7 km/h 4.8 km/h 89% 0.0 mm 0 W/m2
21:21 14.9 °C 13.1 °C 1018.6 hPa North 3.2 km/h 9.7 km/h 89% 0.0 mm 0 W/m2
21:26 14.9 °C 13.1 °C 1018.6 hPa NE 1.4 km/h 3.2 km/h 89% 0.0 mm 0 W/m2
21:31 14.9 °C 13.1 °C 1018.6 hPa NW 4.7 km/h 6.4 km/h 89% 0.0 mm 0 W/m2
21:36 14.9 °C 13.1 °C 1018.6 hPa NW 9.7 km/h 12.9 km/h 89% 0.0 mm 0 W/m2
21:41 14.9 °C 13.1 °C 1018.6 hPa NE 4.7 km/h 4.8 km/h 89% 0.0 mm 0 W/m2
21:46 14.9 °C 13.1 °C 1018.6 hPa NNE 1.4 km/h 12.9 km/h 89% 0.0 mm 0 W/m2
21:51 14.9 °C 13.1 °C 1018.6 hPa North 1.4 km/h 4.8 km/h 89% 0.0 mm 0 W/m2
21:56 14.9 °C 13.1 °C 1018.6 hPa NNW 1.4 km/h 3.2 km/h 89% 0.0 mm 0 W/m2
22:01 14.9 °C 13.1 °C 1018.6 hPa NNW 4.7 km/h 4.8 km/h 89% 0.0 mm 0 W/m2
22:06 14.9 °C 12.9 °C 1018.6 hPa NE 4.7 km/h 6.4 km/h 88% 0.0 mm 0 W/m2
22:11 15 °C 13 °C 1018.6 hPa NNW 1.4 km/h 3.2 km/h 88% 0.0 mm 0 W/m2
22:16 15 °C 13 °C 1018.6 hPa South 6.4 km/h 14.5 km/h 88% 0.0 mm 0 W/m2
22:21 15 °C 13 °C 1018.6 hPa North 4.7 km/h 16.1 km/h 88% 0.0 mm 0 W/m2
22:26 15.1 °C 13.1 °C 1018.6 hPa West 6.4 km/h 8 km/h 88% 0.0 mm 0 W/m2
22:31 15.2 °C 13 °C 1018.6 hPa NW 3.2 km/h 16.1 km/h 87% 0.0 mm 0 W/m2
22:36 15.2 °C 13 °C 1018.6 hPa WNW 6.4 km/h 11.3 km/h 87% 0.0 mm 0 W/m2
22:41 15.2 °C 12.9 °C 1018.6 hPa North 6.4 km/h 6.4 km/h 86% 0.0 mm 0 W/m2
22:46 15.2 °C 12.9 °C 1018.6 hPa WNW 11.1 km/h 11.3 km/h 86% 0.0 mm 0 W/m2
22:52 15.2 °C 12.9 °C 1018.6 hPa NNW 4.7 km/h 12.9 km/h 86% 0.0 mm 0 W/m2
22:57 15.3 °C 13 °C 1018.6 hPa NW 4.7 km/h 9.7 km/h 86% 0.0 mm 0 W/m2
23:02 15.2 °C 12.9 °C 1018.6 hPa NNW 6.4 km/h 11.3 km/h 86% 0.0 mm 0 W/m2
23:07 15.2 °C 12.9 °C 1018.6 hPa North 3.2 km/h 6.4 km/h 86% 0.0 mm 0 W/m2
23:12 15.2 °C 12.9 °C 1018.6 hPa SW 4.7 km/h 14.5 km/h 86% 0.0 mm 0 W/m2
23:17 15.2 °C 12.9 °C 1018.6 hPa North 3.2 km/h 8 km/h 86% 0.0 mm 0 W/m2
23:22 15.2 °C 13 °C 1018.6 hPa NNE 4.7 km/h 14.5 km/h 87% 0.0 mm 0 W/m2
23:27 15.2 °C 13 °C 1018.3 hPa Calm   12.9 km/h 87% 0.0 mm 0 W/m2
23:32 15.1 °C 12.8 °C 1018.6 hPa Calm   6.4 km/h 86% 0.0 mm 0 W/m2
23:37 15.2 °C 12.9 °C 1018.3 hPa East 6.4 km/h 14.5 km/h 86% 0.0 mm 0 W/m2
23:42 15.2 °C 12.9 °C 1018.3 hPa North 4.7 km/h 14.5 km/h 86% 0.0 mm 0 W/m2
23:47 15.2 °C 12.9 °C 1018.3 hPa NNW 1.4 km/h 8 km/h 86% 0.0 mm 0 W/m2
23:52 15.2 °C 12.9 °C 1018.3 hPa NW 1.4 km/h 4.8 km/h 86% 0.0 mm 0 W/m2
23:57 15.1 °C 12.8 °C 1018.3 hPa North 4.7 km/h 8 km/h 86% 0.0 mm 0 W/m2
Juneau County Weather
Compliments of Weather Underground - 4 mb